<?xml version="1.0" encoding="UTF-8" standalone="no" ?>
<gpx xmlns="http://www.topografix.com/GPX/1/1" xmlns:xsi="http://www.w3.org/2001/XMLSchema-instance" xsi:schemaLocation="http://www.topografix.com/GPX/1/1 http://www.topografix.com/GPX/1/1/gpx.xsd" version="1.1" creator="VisuGPX - https://www.visugpx.com">
  <metadata>
    <name>Col Arrouy 2399 m depuis col de la Moulata (Hautacam)</name>
    <desc><![CDATA[Ce col à l'EST du pic d'Arrouy 2488m est un merveilleux belvedère facile d'accès.
De plus ,cette rando nous permettra de reconnaitre le secteur de la Grande Estibère .
Dans la trace, 2 cheminements pour le final dans les éboulis sont proposés.

[url=http://eal-rando.blogspot.fr/2013/01/le-col-arrouy-2399-depuis-le-col-de-la.html]voir rando[/url] ]]></desc>
  </metadata>
  <trk>
    <name><![CDATA[final2_col2399]]></name>
    <trkseg>
      <trkpt lat="42.92943" lon="0.02965">
        <ele>2222.22</ele>
        <time>2012-07-18T09:35:12Z</time>
      </trkpt>
      <trkpt lat="42.9294" lon="0.02967">
        <ele>2222.71</ele>
        <time>2012-07-18T09:35:31Z</time>
      </trkpt>
      <trkpt lat="42.92936" lon="0.02964">
        <ele>2224.63</ele>
        <time>2012-07-18T09:35:50Z</time>
      </trkpt>
      <trkpt lat="42.92932" lon="0.02972">
        <ele>2225.59</ele>
        <time>2012-07-18T09:36:08Z</time>
      </trkpt>
      <trkpt lat="42.92928" lon="0.02973">
        <ele>2227.03</ele>
        <time>2012-07-18T09:36:28Z</time>
      </trkpt>
      <trkpt lat="42.92923" lon="0.02974">
        <ele>2228.95</ele>
        <time>2012-07-18T09:36:46Z</time>
      </trkpt>
      <trkpt lat="42.92922" lon="0.0297">
        <ele>2230.4</ele>
        <time>2012-07-18T09:37:04Z</time>
      </trkpt>
      <trkpt lat="42.92921" lon="0.02972">
        <ele>2231.36</ele>
        <time>2012-07-18T09:37:24Z</time>
      </trkpt>
      <trkpt lat="42.92917" lon="0.02971">
        <ele>2233.28</ele>
        <time>2012-07-18T09:37:43Z</time>
      </trkpt>
      <trkpt lat="42.92917" lon="0.02971">
        <ele>2234.72</ele>
        <time>2012-07-18T09:38:01Z</time>
      </trkpt>
      <trkpt lat="42.92913" lon="0.0297">
        <ele>2235.2</ele>
        <time>2012-07-18T09:38:18Z</time>
      </trkpt>
      <trkpt lat="42.92912" lon="0.02968">
        <ele>2237.13</ele>
        <time>2012-07-18T09:38:39Z</time>
      </trkpt>
      <trkpt lat="42.92909" lon="0.02968">
        <ele>2238.09</ele>
        <time>2012-07-18T09:38:56Z</time>
      </trkpt>
      <trkpt lat="42.92904" lon="0.02969">
        <ele>2239.05</ele>
        <time>2012-07-18T09:39:09Z</time>
      </trkpt>
      <trkpt lat="42.929" lon="0.02967">
        <ele>2240.49</ele>
        <time>2012-07-18T09:39:31Z</time>
      </trkpt>
      <trkpt lat="42.929" lon="0.02967">
        <ele>2241.93</ele>
        <time>2012-07-18T09:39:52Z</time>
      </trkpt>
      <trkpt lat="42.92898" lon="0.02966">
        <ele>2242.89</ele>
        <time>2012-07-18T09:40:13Z</time>
      </trkpt>
      <trkpt lat="42.92898" lon="0.02966">
        <ele>2244.82</ele>
        <time>2012-07-18T09:40:28Z</time>
      </trkpt>
      <trkpt lat="42.92891" lon="0.02963">
        <ele>2245.3</ele>
        <time>2012-07-18T09:40:46Z</time>
      </trkpt>
      <trkpt lat="42.92885" lon="0.02961">
        <ele>2246.74</ele>
        <time>2012-07-18T09:41:06Z</time>
      </trkpt>
      <trkpt lat="42.92883" lon="0.02962">
        <ele>2247.7</ele>
        <time>2012-07-18T09:41:27Z</time>
      </trkpt>
      <trkpt lat="42.92883" lon="0.02962">
        <ele>2249.14</ele>
        <time>2012-07-18T09:41:44Z</time>
      </trkpt>
      <trkpt lat="42.92881" lon="0.02961">
        <ele>2249.62</ele>
        <time>2012-07-18T09:42:04Z</time>
      </trkpt>
      <trkpt lat="42.9288" lon="0.02963">
        <ele>2251.06</ele>
        <time>2012-07-18T09:42:24Z</time>
      </trkpt>
      <trkpt lat="42.92869" lon="0.02961">
        <ele>2252.03</ele>
        <time>2012-07-18T09:42:35Z</time>
      </trkpt>
      <trkpt lat="42.92867" lon="0.0296">
        <ele>2252.99</ele>
        <time>2012-07-18T09:42:47Z</time>
      </trkpt>
      <trkpt lat="42.92866" lon="0.0296">
        <ele>2253.95</ele>
        <time>2012-07-18T09:43:02Z</time>
      </trkpt>
      <trkpt lat="42.92864" lon="0.0296">
        <ele>2254.91</ele>
        <time>2012-07-18T09:43:14Z</time>
      </trkpt>
      <trkpt lat="42.92863" lon="0.0296">
        <ele>2256.35</ele>
        <time>2012-07-18T09:43:28Z</time>
      </trkpt>
      <trkpt lat="42.92863" lon="0.0296">
        <ele>2256.83</ele>
        <time>2012-07-18T09:43:46Z</time>
      </trkpt>
      <trkpt lat="42.92863" lon="0.0296">
        <ele>2258.27</ele>
        <time>2012-07-18T09:44:02Z</time>
      </trkpt>
      <trkpt lat="42.92861" lon="0.0296">
        <ele>2258.75</ele>
        <time>2012-07-18T09:44:15Z</time>
      </trkpt>
      <trkpt lat="42.92859" lon="0.0296">
        <ele>2259.72</ele>
        <time>2012-07-18T09:44:31Z</time>
      </trkpt>
      <trkpt lat="42.92859" lon="0.02961">
        <ele>2260.68</ele>
        <time>2012-07-18T09:44:51Z</time>
      </trkpt>
      <trkpt lat="42.92857" lon="0.02961">
        <ele>2262.6</ele>
        <time>2012-07-18T09:45:08Z</time>
      </trkpt>
      <trkpt lat="42.92855" lon="0.02961">
        <ele>2263.56</ele>
        <time>2012-07-18T09:45:20Z</time>
      </trkpt>
      <trkpt lat="42.92849" lon="0.02961">
        <ele>2264.04</ele>
        <time>2012-07-18T09:45:33Z</time>
      </trkpt>
      <trkpt lat="42.92846" lon="0.02959">
        <ele>2265</ele>
        <time>2012-07-18T09:45:42Z</time>
      </trkpt>
      <trkpt lat="42.92844" lon="0.0296">
        <ele>2265.48</ele>
        <time>2012-07-18T09:45:55Z</time>
      </trkpt>
      <trkpt lat="42.92843" lon="0.02959">
        <ele>2265.96</ele>
        <time>2012-07-18T09:46:08Z</time>
      </trkpt>
      <trkpt lat="42.92841" lon="0.0296">
        <ele>2267.41</ele>
        <time>2012-07-18T09:46:21Z</time>
      </trkpt>
      <trkpt lat="42.92836" lon="0.02956">
        <ele>2267.41</ele>
        <time>2012-07-18T09:46:33Z</time>
      </trkpt>
      <trkpt lat="42.92834" lon="0.02958">
        <ele>2267.89</ele>
        <time>2012-07-18T09:46:52Z</time>
      </trkpt>
      <trkpt lat="42.92831" lon="0.02962">
        <ele>2269.33</ele>
        <time>2012-07-18T09:47:08Z</time>
      </trkpt>
      <trkpt lat="42.9283" lon="0.02964">
        <ele>2269.81</ele>
        <time>2012-07-18T09:47:30Z</time>
      </trkpt>
      <trkpt lat="42.92828" lon="0.02969">
        <ele>2270.77</ele>
        <time>2012-07-18T09:47:44Z</time>
      </trkpt>
      <trkpt lat="42.92828" lon="0.0297">
        <ele>2272.21</ele>
        <time>2012-07-18T09:48:02Z</time>
      </trkpt>
      <trkpt lat="42.92828" lon="0.0297">
        <ele>2273.17</ele>
        <time>2012-07-18T09:48:13Z</time>
      </trkpt>
      <trkpt lat="42.92826" lon="0.02973">
        <ele>2273.17</ele>
        <time>2012-07-18T09:48:14Z</time>
      </trkpt>
      <trkpt lat="42.92821" lon="0.02986">
        <ele>2273.66</ele>
        <time>2012-07-18T09:48:24Z</time>
      </trkpt>
      <trkpt lat="42.92821" lon="0.0299">
        <ele>2273.17</ele>
        <time>2012-07-18T09:48:39Z</time>
      </trkpt>
      <trkpt lat="42.92818" lon="0.02983">
        <ele>2273.17</ele>
        <time>2012-07-18T09:48:57Z</time>
      </trkpt>
      <trkpt lat="42.9281" lon="0.02982">
        <ele>2273.17</ele>
        <time>2012-07-18T09:49:17Z</time>
      </trkpt>
      <trkpt lat="42.9281" lon="0.02982">
        <ele>2273.66</ele>
        <time>2012-07-18T09:49:40Z</time>
      </trkpt>
      <trkpt lat="42.92812" lon="0.02988">
        <ele>2272.69</ele>
        <time>2012-07-18T09:50:11Z</time>
      </trkpt>
      <trkpt lat="42.92815" lon="0.02985">
        <ele>2273.17</ele>
        <time>2012-07-18T09:50:39Z</time>
      </trkpt>
      <trkpt lat="42.92816" lon="0.02989">
        <ele>2272.69</ele>
        <time>2012-07-18T09:51:10Z</time>
      </trkpt>
      <trkpt lat="42.92815" lon="0.02999">
        <ele>2271.73</ele>
        <time>2012-07-18T09:51:31Z</time>
      </trkpt>
      <trkpt lat="42.92815" lon="0.02999">
        <ele>2273.17</ele>
        <time>2012-07-18T09:52:00Z</time>
      </trkpt>
      <trkpt lat="42.92812" lon="0.02998">
        <ele>2272.21</ele>
        <time>2012-07-18T09:52:21Z</time>
      </trkpt>
      <trkpt lat="42.92812" lon="0.02998">
        <ele>2272.69</ele>
        <time>2012-07-18T09:52:40Z</time>
      </trkpt>
      <trkpt lat="42.92812" lon="0.02997">
        <ele>2273.17</ele>
        <time>2012-07-18T09:52:47Z</time>
      </trkpt>
      <trkpt lat="42.9281" lon="0.03003">
        <ele>2272.21</ele>
        <time>2012-07-18T09:52:58Z</time>
      </trkpt>
      <trkpt lat="42.92809" lon="0.03013">
        <ele>2272.69</ele>
        <time>2012-07-18T09:53:20Z</time>
      </trkpt>
      <trkpt lat="42.92808" lon="0.03016">
        <ele>2274.14</ele>
        <time>2012-07-18T09:53:33Z</time>
      </trkpt>
      <trkpt lat="42.92807" lon="0.03012">
        <ele>2275.1</ele>
        <time>2012-07-18T09:53:46Z</time>
      </trkpt>
      <trkpt lat="42.92805" lon="0.03012">
        <ele>2276.06</ele>
        <time>2012-07-18T09:54:03Z</time>
      </trkpt>
      <trkpt lat="42.92805" lon="0.03012">
        <ele>2277.98</ele>
        <time>2012-07-18T09:54:18Z</time>
      </trkpt>
      <trkpt lat="42.928" lon="0.03018">
        <ele>2278.94</ele>
        <time>2012-07-18T09:54:34Z</time>
      </trkpt>
      <trkpt lat="42.92797" lon="0.0302">
        <ele>2279.9</ele>
        <time>2012-07-18T09:54:49Z</time>
      </trkpt>
      <trkpt lat="42.92794" lon="0.03021">
        <ele>2281.35</ele>
        <time>2012-07-18T09:55:06Z</time>
      </trkpt>
      <trkpt lat="42.92794" lon="0.03021">
        <ele>2281.35</ele>
        <time>2012-07-18T09:55:27Z</time>
      </trkpt>
      <trkpt lat="42.92791" lon="0.03021">
        <ele>2282.79</ele>
        <time>2012-07-18T09:55:39Z</time>
      </trkpt>
      <trkpt lat="42.92787" lon="0.03023">
        <ele>2283.75</ele>
        <time>2012-07-18T09:55:52Z</time>
      </trkpt>
      <trkpt lat="42.92785" lon="0.03021">
        <ele>2285.19</ele>
        <time>2012-07-18T09:56:07Z</time>
      </trkpt>
      <trkpt lat="42.92783" lon="0.03022">
        <ele>2286.15</ele>
        <time>2012-07-18T09:56:23Z</time>
      </trkpt>
      <trkpt lat="42.92782" lon="0.03024">
        <ele>2287.11</ele>
        <time>2012-07-18T09:56:36Z</time>
      </trkpt>
      <trkpt lat="42.92781" lon="0.03024">
        <ele>2287.11</ele>
        <time>2012-07-18T09:56:47Z</time>
      </trkpt>
      <trkpt lat="42.9278" lon="0.03024">
        <ele>2288.56</ele>
        <time>2012-07-18T09:57:00Z</time>
      </trkpt>
      <trkpt lat="42.9278" lon="0.03024">
        <ele>2289.04</ele>
        <time>2012-07-18T09:57:15Z</time>
      </trkpt>
      <trkpt lat="42.92775" lon="0.03025">
        <ele>2290</ele>
        <time>2012-07-18T09:57:25Z</time>
      </trkpt>
      <trkpt lat="42.92774" lon="0.03026">
        <ele>2290.96</ele>
        <time>2012-07-18T09:57:36Z</time>
      </trkpt>
      <trkpt lat="42.92773" lon="0.03026">
        <ele>2291.44</ele>
        <time>2012-07-18T09:57:51Z</time>
      </trkpt>
      <trkpt lat="42.9277" lon="0.03036">
        <ele>2291.44</ele>
        <time>2012-07-18T09:58:04Z</time>
      </trkpt>
      <trkpt lat="42.92773" lon="0.03031">
        <ele>2292.4</ele>
        <time>2012-07-18T09:58:18Z</time>
      </trkpt>
      <trkpt lat="42.9277" lon="0.03028">
        <ele>2293.84</ele>
        <time>2012-07-18T09:58:30Z</time>
      </trkpt>
      <trkpt lat="42.92769" lon="0.03028">
        <ele>2294.8</ele>
        <time>2012-07-18T09:58:44Z</time>
      </trkpt>
      <trkpt lat="42.92769" lon="0.03035">
        <ele>2295.28</ele>
        <time>2012-07-18T09:58:58Z</time>
      </trkpt>
      <trkpt lat="42.92769" lon="0.03035">
        <ele>2295.77</ele>
        <time>2012-07-18T09:59:03Z</time>
      </trkpt>
      <trkpt lat="42.92768" lon="0.03042">
        <ele>2296.73</ele>
        <time>2012-07-18T09:59:19Z</time>
      </trkpt>
      <trkpt lat="42.92763" lon="0.03043">
        <ele>2298.17</ele>
        <time>2012-07-18T09:59:34Z</time>
      </trkpt>
      <trkpt lat="42.92763" lon="0.03044">
        <ele>2299.13</ele>
        <time>2012-07-18T09:59:51Z</time>
      </trkpt>
      <trkpt lat="42.92763" lon="0.03045">
        <ele>2300.09</ele>
        <time>2012-07-18T10:00:08Z</time>
      </trkpt>
      <trkpt lat="42.92764" lon="0.03049">
        <ele>2301.05</ele>
        <time>2012-07-18T10:00:22Z</time>
      </trkpt>
      <trkpt lat="42.92762" lon="0.03059">
        <ele>2302.49</ele>
        <time>2012-07-18T10:00:38Z</time>
      </trkpt>
      <trkpt lat="42.9276" lon="0.03059">
        <ele>2303.46</ele>
        <time>2012-07-18T10:00:55Z</time>
      </trkpt>
      <trkpt lat="42.9276" lon="0.03059">
        <ele>2304.42</ele>
        <time>2012-07-18T10:01:12Z</time>
      </trkpt>
      <trkpt lat="42.92759" lon="0.03059">
        <ele>2305.86</ele>
        <time>2012-07-18T10:01:25Z</time>
      </trkpt>
      <trkpt lat="42.92758" lon="0.0306">
        <ele>2306.34</ele>
        <time>2012-07-18T10:01:39Z</time>
      </trkpt>
      <trkpt lat="42.92763" lon="0.03066">
        <ele>2307.3</ele>
        <time>2012-07-18T10:01:51Z</time>
      </trkpt>
      <trkpt lat="42.92757" lon="0.03065">
        <ele>2308.74</ele>
        <time>2012-07-18T10:02:05Z</time>
      </trkpt>
      <trkpt lat="42.92754" lon="0.03059">
        <ele>2309.22</ele>
        <time>2012-07-18T10:02:17Z</time>
      </trkpt>
      <trkpt lat="42.92752" lon="0.03056">
        <ele>2309.7</ele>
        <time>2012-07-18T10:02:27Z</time>
      </trkpt>
      <trkpt lat="42.92752" lon="0.03056">
        <ele>2309.7</ele>
        <time>2012-07-18T10:02:45Z</time>
      </trkpt>
      <trkpt lat="42.92749" lon="0.03048">
        <ele>2311.63</ele>
        <time>2012-07-18T10:02:55Z</time>
      </trkpt>
      <trkpt lat="42.92747" lon="0.03047">
        <ele>2312.11</ele>
        <time>2012-07-18T10:03:10Z</time>
      </trkpt>
      <trkpt lat="42.92747" lon="0.03047">
        <ele>2313.55</ele>
        <time>2012-07-18T10:03:22Z</time>
      </trkpt>
      <trkpt lat="42.92747" lon="0.03047">
        <ele>2314.51</ele>
        <time>2012-07-18T10:03:38Z</time>
      </trkpt>
      <trkpt lat="42.92746" lon="0.03045">
        <ele>2315.47</ele>
        <time>2012-07-18T10:03:56Z</time>
      </trkpt>
      <trkpt lat="42.92745" lon="0.03045">
        <ele>2315.95</ele>
        <time>2012-07-18T10:04:08Z</time>
      </trkpt>
      <trkpt lat="42.92743" lon="0.03043">
        <ele>2316.43</ele>
        <time>2012-07-18T10:04:18Z</time>
      </trkpt>
      <trkpt lat="42.92742" lon="0.03045">
        <ele>2317.4</ele>
        <time>2012-07-18T10:04:33Z</time>
      </trkpt>
      <trkpt lat="42.92741" lon="0.03046">
        <ele>2318.84</ele>
        <time>2012-07-18T10:04:47Z</time>
      </trkpt>
      <trkpt lat="42.9274" lon="0.03044">
        <ele>2319.8</ele>
        <time>2012-07-18T10:05:00Z</time>
      </trkpt>
      <trkpt lat="42.92737" lon="0.03042">
        <ele>2320.76</ele>
        <time>2012-07-18T10:05:15Z</time>
      </trkpt>
      <trkpt lat="42.92735" lon="0.0304">
        <ele>2321.72</ele>
        <time>2012-07-18T10:05:28Z</time>
      </trkpt>
      <trkpt lat="42.92734" lon="0.03038">
        <ele>2323.64</ele>
        <time>2012-07-18T10:05:38Z</time>
      </trkpt>
      <trkpt lat="42.92734" lon="0.03036">
        <ele>2323.64</ele>
        <time>2012-07-18T10:05:48Z</time>
      </trkpt>
      <trkpt lat="42.92732" lon="0.03035">
        <ele>2325.09</ele>
        <time>2012-07-18T10:06:03Z</time>
      </trkpt>
      <trkpt lat="42.9273" lon="0.03033">
        <ele>2326.05</ele>
        <time>2012-07-18T10:06:15Z</time>
      </trkpt>
      <trkpt lat="42.92731" lon="0.03033">
        <ele>2327.01</ele>
        <time>2012-07-18T10:06:31Z</time>
      </trkpt>
      <trkpt lat="42.92731" lon="0.03036">
        <ele>2327.01</ele>
        <time>2012-07-18T10:06:45Z</time>
      </trkpt>
      <trkpt lat="42.9273" lon="0.0304">
        <ele>2328.45</ele>
        <time>2012-07-18T10:06:57Z</time>
      </trkpt>
      <trkpt lat="42.9273" lon="0.03044">
        <ele>2328.93</ele>
        <time>2012-07-18T10:07:11Z</time>
      </trkpt>
      <trkpt lat="42.92728" lon="0.03048">
        <ele>2330.85</ele>
        <time>2012-07-18T10:07:25Z</time>
      </trkpt>
      <trkpt lat="42.92728" lon="0.0305">
        <ele>2331.81</ele>
        <time>2012-07-18T10:07:45Z</time>
      </trkpt>
      <trkpt lat="42.92728" lon="0.03052">
        <ele>2334.22</ele>
        <time>2012-07-18T10:08:04Z</time>
      </trkpt>
      <trkpt lat="42.92728" lon="0.0306">
        <ele>2335.66</ele>
        <time>2012-07-18T10:08:17Z</time>
      </trkpt>
      <trkpt lat="42.92728" lon="0.03062">
        <ele>2337.1</ele>
        <time>2012-07-18T10:08:35Z</time>
      </trkpt>
      <trkpt lat="42.92728" lon="0.03063">
        <ele>2338.54</ele>
        <time>2012-07-18T10:08:52Z</time>
      </trkpt>
      <trkpt lat="42.92726" lon="0.03064">
        <ele>2339.51</ele>
        <time>2012-07-18T10:09:07Z</time>
      </trkpt>
      <trkpt lat="42.92723" lon="0.03066">
        <ele>2340.95</ele>
        <time>2012-07-18T10:09:18Z</time>
      </trkpt>
      <trkpt lat="42.9272" lon="0.03064">
        <ele>2341.91</ele>
        <time>2012-07-18T10:09:31Z</time>
      </trkpt>
      <trkpt lat="42.92719" lon="0.03063">
        <ele>2343.35</ele>
        <time>2012-07-18T10:09:46Z</time>
      </trkpt>
      <trkpt lat="42.92719" lon="0.03062">
        <ele>2343.83</ele>
        <time>2012-07-18T10:10:06Z</time>
      </trkpt>
      <trkpt lat="42.92719" lon="0.03061">
        <ele>2345.27</ele>
        <time>2012-07-18T10:10:17Z</time>
      </trkpt>
      <trkpt lat="42.92715" lon="0.03058">
        <ele>2346.23</ele>
        <time>2012-07-18T10:10:30Z</time>
      </trkpt>
      <trkpt lat="42.92712" lon="0.0306">
        <ele>2348.16</ele>
        <time>2012-07-18T10:10:42Z</time>
      </trkpt>
      <trkpt lat="42.92712" lon="0.0306">
        <ele>2349.12</ele>
        <time>2012-07-18T10:11:04Z</time>
      </trkpt>
      <trkpt lat="42.92712" lon="0.03061">
        <ele>2349.6</ele>
        <time>2012-07-18T10:11:18Z</time>
      </trkpt>
      <trkpt lat="42.92712" lon="0.03064">
        <ele>2351.04</ele>
        <time>2012-07-18T10:11:33Z</time>
      </trkpt>
      <trkpt lat="42.92711" lon="0.03065">
        <ele>2352.96</ele>
        <time>2012-07-18T10:11:47Z</time>
      </trkpt>
      <trkpt lat="42.92712" lon="0.03069">
        <ele>2354.41</ele>
        <time>2012-07-18T10:12:04Z</time>
      </trkpt>
      <trkpt lat="42.92713" lon="0.03074">
        <ele>2356.33</ele>
        <time>2012-07-18T10:12:23Z</time>
      </trkpt>
      <trkpt lat="42.92711" lon="0.03076">
        <ele>2357.29</ele>
        <time>2012-07-18T10:12:41Z</time>
      </trkpt>
      <trkpt lat="42.92707" lon="0.0308">
        <ele>2358.25</ele>
        <time>2012-07-18T10:12:55Z</time>
      </trkpt>
      <trkpt lat="42.92705" lon="0.0308">
        <ele>2360.17</ele>
        <time>2012-07-18T10:13:12Z</time>
      </trkpt>
      <trkpt lat="42.92702" lon="0.03077">
        <ele>2360.65</ele>
        <time>2012-07-18T10:13:21Z</time>
      </trkpt>
      <trkpt lat="42.92701" lon="0.03076">
        <ele>2362.1</ele>
        <time>2012-07-18T10:13:29Z</time>
      </trkpt>
      <trkpt lat="42.927" lon="0.03075">
        <ele>2363.54</ele>
        <time>2012-07-18T10:13:40Z</time>
      </trkpt>
      <trkpt lat="42.92697" lon="0.03074">
        <ele>2365.46</ele>
        <time>2012-07-18T10:13:57Z</time>
      </trkpt>
      <trkpt lat="42.92694" lon="0.03072">
        <ele>2366.9</ele>
        <time>2012-07-18T10:14:09Z</time>
      </trkpt>
      <trkpt lat="42.92692" lon="0.03068">
        <ele>2368.83</ele>
        <time>2012-07-18T10:14:24Z</time>
      </trkpt>
      <trkpt lat="42.9269" lon="0.03067">
        <ele>2370.75</ele>
        <time>2012-07-18T10:14:40Z</time>
      </trkpt>
      <trkpt lat="42.92688" lon="0.03069">
        <ele>2370.75</ele>
        <time>2012-07-18T10:14:55Z</time>
      </trkpt>
      <trkpt lat="42.92689" lon="0.0307">
        <ele>2371.71</ele>
        <time>2012-07-18T10:15:12Z</time>
      </trkpt>
      <trkpt lat="42.92689" lon="0.0307">
        <ele>2371.71</ele>
        <time>2012-07-18T10:15:35Z</time>
      </trkpt>
      <trkpt lat="42.92686" lon="0.03069">
        <ele>2372.19</ele>
        <time>2012-07-18T10:15:52Z</time>
      </trkpt>
      <trkpt lat="42.92684" lon="0.03065">
        <ele>2371.71</ele>
        <time>2012-07-18T10:16:08Z</time>
      </trkpt>
      <trkpt lat="42.92685" lon="0.03064">
        <ele>2371.71</ele>
        <time>2012-07-18T10:16:21Z</time>
      </trkpt>
      <trkpt lat="42.92685" lon="0.03064">
        <ele>2372.19</ele>
        <time>2012-07-18T10:16:45Z</time>
      </trkpt>
      <trkpt lat="42.92684" lon="0.03064">
        <ele>2371.23</ele>
        <time>2012-07-18T10:17:07Z</time>
      </trkpt>
      <trkpt lat="42.92684" lon="0.03064">
        <ele>2371.71</ele>
        <time>2012-07-18T10:17:35Z</time>
      </trkpt>
      <trkpt lat="42.92684" lon="0.03064">
        <ele>2372.67</ele>
        <time>2012-07-18T10:18:04Z</time>
      </trkpt>
      <trkpt lat="42.92684" lon="0.03064">
        <ele>2373.15</ele>
        <time>2012-07-18T10:18:30Z</time>
      </trkpt>
      <trkpt lat="42.92684" lon="0.03064">
        <ele>2373.15</ele>
        <time>2012-07-18T10:18:58Z</time>
      </trkpt>
      <trkpt lat="42.92684" lon="0.03064">
        <ele>2373.15</ele>
        <time>2012-07-18T10:19:26Z</time>
      </trkpt>
      <trkpt lat="42.92684" lon="0.03064">
        <ele>2374.11</ele>
        <time>2012-07-18T10:19:55Z</time>
      </trkpt>
      <trkpt lat="42.92684" lon="0.03064">
        <ele>2374.59</ele>
        <time>2012-07-18T10:20:24Z</time>
      </trkpt>
      <trkpt lat="42.92684" lon="0.03064">
        <ele>2374.11</ele>
        <time>2012-07-18T10:20:48Z</time>
      </trkpt>
      <trkpt lat="42.92684" lon="0.03064">
        <ele>2374.59</ele>
        <time>2012-07-18T10:21:14Z</time>
      </trkpt>
      <trkpt lat="42.92684" lon="0.03064">
        <ele>2374.59</ele>
        <time>2012-07-18T10:21:36Z</time>
      </trkpt>
      <trkpt lat="42.92684" lon="0.03064">
        <ele>2375.55</ele>
        <time>2012-07-18T10:22:08Z</time>
      </trkpt>
      <trkpt lat="42.92684" lon="0.03064">
        <ele>2375.55</ele>
        <time>2012-07-18T10:22:44Z</time>
      </trkpt>
      <trkpt lat="42.92683" lon="0.03064">
        <ele>2375.55</ele>
        <time>2012-07-18T10:23:10Z</time>
      </trkpt>
      <trkpt lat="42.92683" lon="0.03064">
        <ele>2377</ele>
        <time>2012-07-18T10:23:42Z</time>
      </trkpt>
      <trkpt lat="42.92684" lon="0.03065">
        <ele>2377</ele>
        <time>2012-07-18T10:24:09Z</time>
      </trkpt>
      <trkpt lat="42.92684" lon="0.03065">
        <ele>2377</ele>
        <time>2012-07-18T10:24:33Z</time>
      </trkpt>
      <trkpt lat="42.92684" lon="0.03065">
        <ele>2376.04</ele>
        <time>2012-07-18T10:25:01Z</time>
      </trkpt>
      <trkpt lat="42.92685" lon="0.03068">
        <ele>2377</ele>
        <time>2012-07-18T10:25:22Z</time>
      </trkpt>
      <trkpt lat="42.92685" lon="0.03068">
        <ele>2377.96</ele>
        <time>2012-07-18T10:25:45Z</time>
      </trkpt>
      <trkpt lat="42.92685" lon="0.03068">
        <ele>2377.48</ele>
        <time>2012-07-18T10:26:17Z</time>
      </trkpt>
      <trkpt lat="42.92685" lon="0.03068">
        <ele>2378.44</ele>
        <time>2012-07-18T10:26:44Z</time>
      </trkpt>
      <trkpt lat="42.92685" lon="0.03068">
        <ele>2378.44</ele>
        <time>2012-07-18T10:27:06Z</time>
      </trkpt>
      <trkpt lat="42.92685" lon="0.03068">
        <ele>2377.48</ele>
        <time>2012-07-18T10:27:33Z</time>
      </trkpt>
      <trkpt lat="42.92687" lon="0.03068">
        <ele>2378.92</ele>
        <time>2012-07-18T10:27:55Z</time>
      </trkpt>
      <trkpt lat="42.92685" lon="0.03065">
        <ele>2378.92</ele>
        <time>2012-07-18T10:28:24Z</time>
      </trkpt>
      <trkpt lat="42.92684" lon="0.03065">
        <ele>2378.44</ele>
        <time>2012-07-18T10:28:49Z</time>
      </trkpt>
      <trkpt lat="42.92684" lon="0.03065">
        <ele>2378.92</ele>
        <time>2012-07-18T10:29:16Z</time>
      </trkpt>
      <trkpt lat="42.92688" lon="0.03067">
        <ele>2379.4</ele>
        <time>2012-07-18T10:29:38Z</time>
      </trkpt>
      <trkpt lat="42.92688" lon="0.03067">
        <ele>2379.88</ele>
        <time>2012-07-18T10:30:04Z</time>
      </trkpt>
      <trkpt lat="42.92687" lon="0.03069">
        <ele>2380.36</ele>
        <time>2012-07-18T10:30:29Z</time>
      </trkpt>
      <trkpt lat="42.92687" lon="0.03069">
        <ele>2379.88</ele>
        <time>2012-07-18T10:30:55Z</time>
      </trkpt>
      <trkpt lat="42.92687" lon="0.03069">
        <ele>2379.4</ele>
        <time>2012-07-18T10:31:18Z</time>
      </trkpt>
      <trkpt lat="42.92688" lon="0.03067">
        <ele>2380.84</ele>
        <time>2012-07-18T10:31:36Z</time>
      </trkpt>
      <trkpt lat="42.9269" lon="0.03067">
        <ele>2381.32</ele>
        <time>2012-07-18T10:31:52Z</time>
      </trkpt>
      <trkpt lat="42.9269" lon="0.03067">
        <ele>2381.32</ele>
        <time>2012-07-18T10:32:18Z</time>
      </trkpt>
      <trkpt lat="42.9269" lon="0.03067">
        <ele>2381.32</ele>
        <time>2012-07-18T10:32:43Z</time>
      </trkpt>
      <trkpt lat="42.92693" lon="0.03066">
        <ele>2381.8</ele>
        <time>2012-07-18T10:33:04Z</time>
      </trkpt>
      <trkpt lat="42.92693" lon="0.03067">
        <ele>2380.84</ele>
        <time>2012-07-18T10:33:24Z</time>
      </trkpt>
      <trkpt lat="42.92695" lon="0.03066">
        <ele>2379.88</ele>
        <time>2012-07-18T10:33:39Z</time>
      </trkpt>
      <trkpt lat="42.92696" lon="0.03064">
        <ele>2378.44</ele>
        <time>2012-07-18T10:33:50Z</time>
      </trkpt>
      <trkpt lat="42.92698" lon="0.03066">
        <ele>2377.96</ele>
        <time>2012-07-18T10:34:03Z</time>
      </trkpt>
      <trkpt lat="42.92701" lon="0.0307">
        <ele>2376.04</ele>
        <time>2012-07-18T10:34:19Z</time>
      </trkpt>
      <trkpt lat="42.92705" lon="0.03071">
        <ele>2374.59</ele>
        <time>2012-07-18T10:34:33Z</time>
      </trkpt>
      <trkpt lat="42.92709" lon="0.03075">
        <ele>2372.67</ele>
        <time>2012-07-18T10:34:46Z</time>
      </trkpt>
      <trkpt lat="42.92714" lon="0.03075">
        <ele>2371.23</ele>
        <time>2012-07-18T10:35:00Z</time>
      </trkpt>
      <trkpt lat="42.92713" lon="0.03075">
        <ele>2371.23</ele>
        <time>2012-07-18T10:35:19Z</time>
      </trkpt>
      <trkpt lat="42.92714" lon="0.03076">
        <ele>2369.79</ele>
        <time>2012-07-18T10:35:30Z</time>
      </trkpt>
      <trkpt lat="42.92715" lon="0.03077">
        <ele>2369.31</ele>
        <time>2012-07-18T10:35:38Z</time>
      </trkpt>
      <trkpt lat="42.92714" lon="0.03073">
        <ele>2368.35</ele>
        <time>2012-07-18T10:35:52Z</time>
      </trkpt>
      <trkpt lat="42.92715" lon="0.03069">
        <ele>2367.86</ele>
        <time>2012-07-18T10:36:01Z</time>
      </trkpt>
      <trkpt lat="42.92715" lon="0.03064">
        <ele>2365.94</ele>
        <time>2012-07-18T10:36:14Z</time>
      </trkpt>
      <trkpt lat="42.92716" lon="0.03059">
        <ele>2364.5</ele>
        <time>2012-07-18T10:36:25Z</time>
      </trkpt>
      <trkpt lat="42.92716" lon="0.03054">
        <ele>2362.1</ele>
        <time>2012-07-18T10:36:38Z</time>
      </trkpt>
      <trkpt lat="42.92717" lon="0.03049">
        <ele>2360.17</ele>
        <time>2012-07-18T10:36:48Z</time>
      </trkpt>
      <trkpt lat="42.92719" lon="0.03042">
        <ele>2357.77</ele>
        <time>2012-07-18T10:37:01Z</time>
      </trkpt>
      <trkpt lat="42.9272" lon="0.03035">
        <ele>2355.85</ele>
        <time>2012-07-18T10:37:17Z</time>
      </trkpt>
      <trkpt lat="42.9272" lon="0.03035">
        <ele>2355.85</ele>
        <time>2012-07-18T10:37:33Z</time>
      </trkpt>
      <trkpt lat="42.9272" lon="0.03035">
        <ele>2354.41</ele>
        <time>2012-07-18T10:37:45Z</time>
      </trkpt>
      <trkpt lat="42.9272" lon="0.03035">
        <ele>2352.96</ele>
        <time>2012-07-18T10:38:02Z</time>
      </trkpt>
      <trkpt lat="42.92722" lon="0.03035">
        <ele>2352.48</ele>
        <time>2012-07-18T10:38:16Z</time>
      </trkpt>
      <trkpt lat="42.92722" lon="0.03035">
        <ele>2351.52</ele>
        <time>2012-07-18T10:38:28Z</time>
      </trkpt>
      <trkpt lat="42.92726" lon="0.03037">
        <ele>2350.08</ele>
        <time>2012-07-18T10:38:42Z</time>
      </trkpt>
      <trkpt lat="42.92727" lon="0.03039">
        <ele>2350.56</ele>
        <time>2012-07-18T10:38:56Z</time>
      </trkpt>
      <trkpt lat="42.92727" lon="0.0304">
        <ele>2349.6</ele>
        <time>2012-07-18T10:39:10Z</time>
      </trkpt>
      <trkpt lat="42.92727" lon="0.0304">
        <ele>2350.08</ele>
        <time>2012-07-18T10:39:26Z</time>
      </trkpt>
      <trkpt lat="42.92727" lon="0.03043">
        <ele>2350.08</ele>
        <time>2012-07-18T10:39:40Z</time>
      </trkpt>
      <trkpt lat="42.92728" lon="0.03045">
        <ele>2349.6</ele>
        <time>2012-07-18T10:39:53Z</time>
      </trkpt>
      <trkpt lat="42.9273" lon="0.03044">
        <ele>2348.16</ele>
        <time>2012-07-18T10:40:05Z</time>
      </trkpt>
      <trkpt lat="42.92733" lon="0.03039">
        <ele>2346.72</ele>
        <time>2012-07-18T10:40:19Z</time>
      </trkpt>
      <trkpt lat="42.92733" lon="0.03037">
        <ele>2345.27</ele>
        <time>2012-07-18T10:40:33Z</time>
      </trkpt>
      <trkpt lat="42.92734" lon="0.03026">
        <ele>2343.83</ele>
        <time>2012-07-18T10:40:50Z</time>
      </trkpt>
      <trkpt lat="42.92734" lon="0.03025">
        <ele>2343.35</ele>
        <time>2012-07-18T10:41:09Z</time>
      </trkpt>
      <trkpt lat="42.92734" lon="0.03018">
        <ele>2342.39</ele>
        <time>2012-07-18T10:41:27Z</time>
      </trkpt>
      <trkpt lat="42.92736" lon="0.03011">
        <ele>2340.95</ele>
        <time>2012-07-18T10:41:43Z</time>
      </trkpt>
      <trkpt lat="42.92738" lon="0.03006">
        <ele>2340.95</ele>
        <time>2012-07-18T10:41:56Z</time>
      </trkpt>
      <trkpt lat="42.92739" lon="0.03004">
        <ele>2339.02</ele>
        <time>2012-07-18T10:42:09Z</time>
      </trkpt>
      <trkpt lat="42.92739" lon="0.03">
        <ele>2338.54</ele>
        <time>2012-07-18T10:42:21Z</time>
      </trkpt>
      <trkpt lat="42.9274" lon="0.02994">
        <ele>2336.62</ele>
        <time>2012-07-18T10:42:30Z</time>
      </trkpt>
      <trkpt lat="42.92741" lon="0.02991">
        <ele>2335.18</ele>
        <time>2012-07-18T10:42:45Z</time>
      </trkpt>
      <trkpt lat="42.92747" lon="0.02986">
        <ele>2333.26</ele>
        <time>2012-07-18T10:42:59Z</time>
      </trkpt>
      <trkpt lat="42.92751" lon="0.02977">
        <ele>2331.33</ele>
        <time>2012-07-18T10:43:13Z</time>
      </trkpt>
      <trkpt lat="42.92752" lon="0.02969">
        <ele>2329.89</ele>
        <time>2012-07-18T10:43:25Z</time>
      </trkpt>
      <trkpt lat="42.92752" lon="0.0297">
        <ele>2329.89</ele>
        <time>2012-07-18T10:43:40Z</time>
      </trkpt>
      <trkpt lat="42.92753" lon="0.02968">
        <ele>2328.45</ele>
        <time>2012-07-18T10:43:54Z</time>
      </trkpt>
      <trkpt lat="42.92753" lon="0.02967">
        <ele>2327.49</ele>
        <time>2012-07-18T10:44:04Z</time>
      </trkpt>
      <trkpt lat="42.92754" lon="0.02964">
        <ele>2325.57</ele>
        <time>2012-07-18T10:44:15Z</time>
      </trkpt>
      <trkpt lat="42.92756" lon="0.0296">
        <ele>2324.12</ele>
        <time>2012-07-18T10:44:25Z</time>
      </trkpt>
      <trkpt lat="42.92757" lon="0.02956">
        <ele>2322.68</ele>
        <time>2012-07-18T10:44:39Z</time>
      </trkpt>
      <trkpt lat="42.92763" lon="0.02949">
        <ele>2321.72</ele>
        <time>2012-07-18T10:44:51Z</time>
      </trkpt>
      <trkpt lat="42.92768" lon="0.02938">
        <ele>2320.76</ele>
        <time>2012-07-18T10:45:05Z</time>
      </trkpt>
      <trkpt lat="42.9277" lon="0.02934">
        <ele>2319.32</ele>
        <time>2012-07-18T10:45:18Z</time>
      </trkpt>
      <trkpt lat="42.92775" lon="0.02926">
        <ele>2317.88</ele>
        <time>2012-07-18T10:45:30Z</time>
      </trkpt>
      <trkpt lat="42.92781" lon="0.0292">
        <ele>2316.91</ele>
        <time>2012-07-18T10:45:45Z</time>
      </trkpt>
      <trkpt lat="42.92783" lon="0.02917">
        <ele>2316.91</ele>
        <time>2012-07-18T10:45:49Z</time>
      </trkpt>
      <trkpt lat="42.92785" lon="0.02913">
        <ele>2315.95</ele>
        <time>2012-07-18T10:45:53Z</time>
      </trkpt>
      <trkpt lat="42.92789" lon="0.02904">
        <ele>2316.43</ele>
        <time>2012-07-18T10:46:05Z</time>
      </trkpt>
      <trkpt lat="42.9279" lon="0.029">
        <ele>2315.95</ele>
        <time>2012-07-18T10:46:11Z</time>
      </trkpt>
      <trkpt lat="42.92793" lon="0.02898">
        <ele>2314.99</ele>
        <time>2012-07-18T10:46:24Z</time>
      </trkpt>
      <trkpt lat="42.92793" lon="0.02898">
        <ele>2315.47</ele>
        <time>2012-07-18T10:46:47Z</time>
      </trkpt>
      <trkpt lat="42.92795" lon="0.02895">
        <ele>2314.99</ele>
        <time>2012-07-18T10:47:14Z</time>
      </trkpt>
      <trkpt lat="42.92801" lon="0.02887">
        <ele>2314.03</ele>
        <time>2012-07-18T10:47:26Z</time>
      </trkpt>
      <trkpt lat="42.92805" lon="0.02886">
        <ele>2312.59</ele>
        <time>2012-07-18T10:47:38Z</time>
      </trkpt>
      <trkpt lat="42.92807" lon="0.02882">
        <ele>2311.15</ele>
        <time>2012-07-18T10:47:50Z</time>
      </trkpt>
      <trkpt lat="42.92812" lon="0.02878">
        <ele>2309.22</ele>
        <time>2012-07-18T10:48:03Z</time>
      </trkpt>
      <trkpt lat="42.92814" lon="0.02877">
        <ele>2308.74</ele>
        <time>2012-07-18T10:48:16Z</time>
      </trkpt>
      <trkpt lat="42.92814" lon="0.02877">
        <ele>2308.26</ele>
        <time>2012-07-18T10:48:37Z</time>
      </trkpt>
      <trkpt lat="42.92817" lon="0.02877">
        <ele>2306.82</ele>
        <time>2012-07-18T10:48:50Z</time>
      </trkpt>
      <trkpt lat="42.92819" lon="0.02878">
        <ele>2304.9</ele>
        <time>2012-07-18T10:49:01Z</time>
      </trkpt>
      <trkpt lat="42.92821" lon="0.0288">
        <ele>2302.98</ele>
        <time>2012-07-18T10:49:14Z</time>
      </trkpt>
      <trkpt lat="42.92822" lon="0.0288">
        <ele>2301.53</ele>
        <time>2012-07-18T10:49:22Z</time>
      </trkpt>
      <trkpt lat="42.92823" lon="0.02882">
        <ele>2300.57</ele>
        <time>2012-07-18T10:49:33Z</time>
      </trkpt>
      <trkpt lat="42.92824" lon="0.02887">
        <ele>2298.65</ele>
        <time>2012-07-18T10:49:47Z</time>
      </trkpt>
      <trkpt lat="42.92825" lon="0.02893">
        <ele>2297.21</ele>
        <time>2012-07-18T10:50:03Z</time>
      </trkpt>
      <trkpt lat="42.92831" lon="0.02895">
        <ele>2294.8</ele>
        <time>2012-07-18T10:50:17Z</time>
      </trkpt>
      <trkpt lat="42.92831" lon="0.02899">
        <ele>2292.88</ele>
        <time>2012-07-18T10:50:31Z</time>
      </trkpt>
      <trkpt lat="42.92832" lon="0.029">
        <ele>2291.92</ele>
        <time>2012-07-18T10:50:41Z</time>
      </trkpt>
      <trkpt lat="42.92832" lon="0.029">
        <ele>2292.4</ele>
        <time>2012-07-18T10:51:01Z</time>
      </trkpt>
      <trkpt lat="42.92833" lon="0.029">
        <ele>2292.4</ele>
        <time>2012-07-18T10:51:21Z</time>
      </trkpt>
      <trkpt lat="42.92833" lon="0.029">
        <ele>2290.96</ele>
        <time>2012-07-18T10:51:39Z</time>
      </trkpt>
      <trkpt lat="42.92838" lon="0.02899">
        <ele>2289.52</ele>
        <time>2012-07-18T10:51:52Z</time>
      </trkpt>
      <trkpt lat="42.92841" lon="0.02902">
        <ele>2287.59</ele>
        <time>2012-07-18T10:52:06Z</time>
      </trkpt>
      <trkpt lat="42.92845" lon="0.02906">
        <ele>2285.67</ele>
        <time>2012-07-18T10:52:21Z</time>
      </trkpt>
      <trkpt lat="42.92846" lon="0.02905">
        <ele>2284.71</ele>
        <time>2012-07-18T10:52:34Z</time>
      </trkpt>
      <trkpt lat="42.92853" lon="0.029">
        <ele>2282.79</ele>
        <time>2012-07-18T10:52:53Z</time>
      </trkpt>
      <trkpt lat="42.92857" lon="0.02901">
        <ele>2279.9</ele>
        <time>2012-07-18T10:53:08Z</time>
      </trkpt>
      <trkpt lat="42.92859" lon="0.02904">
        <ele>2278.46</ele>
        <time>2012-07-18T10:53:20Z</time>
      </trkpt>
      <trkpt lat="42.92858" lon="0.0291">
        <ele>2277.5</ele>
        <time>2012-07-18T10:53:34Z</time>
      </trkpt>
      <trkpt lat="42.9286" lon="0.02915">
        <ele>2275.58</ele>
        <time>2012-07-18T10:53:45Z</time>
      </trkpt>
      <trkpt lat="42.92865" lon="0.0292">
        <ele>2273.17</ele>
        <time>2012-07-18T10:53:56Z</time>
      </trkpt>
      <trkpt lat="42.92866" lon="0.02927">
        <ele>2272.21</ele>
        <time>2012-07-18T10:54:08Z</time>
      </trkpt>
      <trkpt lat="42.92868" lon="0.02928">
        <ele>2271.73</ele>
        <time>2012-07-18T10:54:11Z</time>
      </trkpt>
      <trkpt lat="42.92874" lon="0.02928">
        <ele>2269.33</ele>
        <time>2012-07-18T10:54:24Z</time>
      </trkpt>
      <trkpt lat="42.92876" lon="0.02932">
        <ele>2267.89</ele>
        <time>2012-07-18T10:54:37Z</time>
      </trkpt>
      <trkpt lat="42.92881" lon="0.02934">
        <ele>2265.48</ele>
        <time>2012-07-18T10:54:52Z</time>
      </trkpt>
      <trkpt lat="42.92888" lon="0.02932">
        <ele>2263.08</ele>
        <time>2012-07-18T10:55:05Z</time>
      </trkpt>
      <trkpt lat="42.92892" lon="0.02934">
        <ele>2261.16</ele>
        <time>2012-07-18T10:55:17Z</time>
      </trkpt>
      <trkpt lat="42.92892" lon="0.02934">
        <ele>2260.2</ele>
        <time>2012-07-18T10:55:39Z</time>
      </trkpt>
      <trkpt lat="42.92895" lon="0.02938">
        <ele>2257.79</ele>
        <time>2012-07-18T10:55:52Z</time>
      </trkpt>
      <trkpt lat="42.92899" lon="0.02945">
        <ele>2255.87</ele>
        <time>2012-07-18T10:56:03Z</time>
      </trkpt>
      <trkpt lat="42.92904" lon="0.02943">
        <ele>2254.43</ele>
        <time>2012-07-18T10:56:11Z</time>
      </trkpt>
      <trkpt lat="42.92905" lon="0.02954">
        <ele>2253.47</ele>
        <time>2012-07-18T10:56:23Z</time>
      </trkpt>
      <trkpt lat="42.9291" lon="0.0296">
        <ele>2251.06</ele>
        <time>2012-07-18T10:56:36Z</time>
      </trkpt>
      <trkpt lat="42.92915" lon="0.02962">
        <ele>2248.66</ele>
        <time>2012-07-18T10:56:52Z</time>
      </trkpt>
      <trkpt lat="42.92916" lon="0.02964">
        <ele>2247.7</ele>
        <time>2012-07-18T10:57:04Z</time>
      </trkpt>
      <trkpt lat="42.9292" lon="0.02962">
        <ele>2245.3</ele>
        <time>2012-07-18T10:57:18Z</time>
      </trkpt>
      <trkpt lat="42.92924" lon="0.02962">
        <ele>2243.37</ele>
        <time>2012-07-18T10:57:30Z</time>
      </trkpt>
      <trkpt lat="42.92928" lon="0.0296">
        <ele>2241.45</ele>
        <time>2012-07-18T10:57:39Z</time>
      </trkpt>
      <trkpt lat="42.92933" lon="0.02962">
        <ele>2239.05</ele>
        <time>2012-07-18T10:57:55Z</time>
      </trkpt>
      <trkpt lat="42.92939" lon="0.02961">
        <ele>2236.64</ele>
        <time>2012-07-18T10:58:09Z</time>
      </trkpt>
      <trkpt lat="42.92942" lon="0.02963">
        <ele>2236.16</ele>
        <time>2012-07-18T10:58:23Z</time>
      </trkpt>
    </trkseg>
  </trk>
</gpx>